This is the latest recevied weather packets stored in our database for station/object F1AGU-13. If no packets are shown the sender has not sent any weather packets the latest 10 day(s).
| Time | Temp. | Humidity | Pressure | Rain* | Wind** | Luminosity | Snow |
|---|---|---|---|---|---|---|---|
| 1787578216 | 26.67° C | 60% | 1017.2 hPa | 0 mm | - | - | - |
| 1787577616 | 26.11° C | 51% | 1016.9 hPa | 0 mm | - | - | - |
| 1787577016 | 26.11° C | 59% | 1017 hPa | 0 mm | - | - | - |
| 1787576416 | 26.11° C | 58% | 1017.3 hPa | 0 mm | - | - | - |
| 1787575816 | 26.11° C | 53% | 1017.1 hPa | 0 mm | - | - | - |
| 1787575216 | 25.56° C | 58% | 1017.3 hPa | 0 mm | - | - | - |
| 1787574616 | 25.56° C | 59% | 1017.4 hPa | 0 mm | - | - | - |
| 1787574016 | 25° C | 62% | 1017.6 hPa | 0 mm | - | - | - |
| 1787573415 | 25° C | 59% | 1017.7 hPa | 0 mm | - | - | - |
| 1787572816 | 25° C | 62% | 1017.9 hPa | 0 mm | - | - | - |
| 1787572216 | 24.44° C | 61% | 1017.9 hPa | 0 mm | - | - | - |
| 1787571615 | 24.44° C | 59% | 1017.9 hPa | 0 mm | - | - | - |
| 1787571015 | 23.89° C | 61% | 1018 hPa | 0 mm | - | - | - |
| 1787570415 | 23.89° C | 63% | 1018.2 hPa | 0 mm | - | - | - |
| 1787569815 | 23.33° C | 62% | 1018.3 hPa | 0 mm | - | - | - |
| 1787569215 | 23.33° C | 66% | 1018.5 hPa | 0 mm | - | - | - |
| 1787568615 | 22.78° C | 64% | 1018.6 hPa | 0 mm | - | - | - |
| 1787568015 | 22.78° C | 67% | 1018.7 hPa | 0 mm | - | - | - |
| 1787567415 | 22.22° C | 65% | 1018.8 hPa | 0 mm | - | - | - |
| 1787566815 | 22.78° C | 67% | 1018.9 hPa | 0 mm | - | - | - |
| 1787566217 | 22.22° C | 66% | 1019 hPa | 0 mm | - | - | - |
| 1787565617 | 21.67° C | 69% | 1019.1 hPa | 0 mm | - | - | - |
| 1787565016 | 21.11° C | 69% | 1019.3 hPa | 0 mm | - | - | - |
| 1787564417 | 20.56° C | 71% | 1019.2 hPa | 0 mm | - | - | - |
| 1787563863 | 20.56° C | 69% | 1019.3 hPa | 0 mm | - | - | - |
* Rain latest hour (hover to see other rain measurements)
** Current wind speed in m/s (hover to see current wind gust speed)